Create Custom Reports and Graphics: Custom Report

Modesto Jr College

Current Conditions

5/22/19 3:30 AM (-07:00)
Updated Every 15 Minutes
Temp 52.8 °F   0.3
RH 83 %   6
Dew Pt 47.8 °F   1.7
Wind Spd 4.7 mph
Wind Dir NW | 309 °
Wind Gust 7.9 mph   2.0
Latest Rain 0.00 In
Daily Rain 0.00 In
Daily Min Temp 52.1 °F   1.8
Daily Max Temp 54.4 °F   0.9

Last 24 Hours

Modesto Jr College

15 Minute Data | America/Los_Angeles
as of 5/22/19 3:39 AM PDT
Date & Time Temp (°F) RH (%) Dew Pt (°F) Wind Spd (mph) Wind Dir (°) Wind Gust (mph) Latest Rain (In) Daily Rain (In) Daily Min Temp (°F) Daily Max Temp (°F)
5/22/19 - 0330 52.8 83 47.8 4.7 NW | 309 7.9 0.00 0.00 52.1 54.4
5/22/19 - 0315 53.4 78 46.6 6.3 WNW | 302 11.4 0.00 0.00 53.2 54.4
5/22/19 - 0300 53.5 77 46.5 5.2 WNW | 302 10.7 0.00 0.00 53.3 54.4
5/22/19 - 0245 53.5 77 46.6 4.9 NW | 304 9.9 0.00 0.00 53.3 54.4
5/22/19 - 0230 53.6 77 46.6 4.9 NW | 311 7.9 0.00 0.00 53.4 54.4
5/22/19 - 0215 53.7 76 46.4 4.4 WNW | 302 8.1 0.00 0.00 53.5 54.4
5/22/19 - 0200 53.8 76 46.3 4.3 WNW | 301 8.8 0.00 0.00 53.5 54.4
5/22/19 - 0145 54.0 74 46.1 4.5 WNW | 302 9.2 0.00 0.00 53.7 54.4
5/22/19 - 0130 54.2 74 46.0 5.4 WNW | 293 10.7 0.00 0.00 53.9 54.4
5/22/19 - 0115 54.3 73 45.9 5.5 WNW | 287 10.5 0.00 0.00 54.0 54.4
5/22/19 - 0100 54.2 73 45.9 5.4 WNW | 287 11.8 0.00 0.12 50.3 65.3
5/22/19 - 0045 53.9 74 45.9 5.0 WNW | 290 10.1 0.00 0.12 50.3 65.3
5/22/19 - 0030 53.8 74 45.8 5.6 WNW | 286 9.4 0.00 0.12 50.3 65.3
5/22/19 - 0015 53.4 75 45.8 6.1 WNW | 282 11.2 0.00 0.12 50.3 65.3
5/22/19 - 0000 52.8 76 45.6 5.1 WNW | 284 9.4 0.00 0.12 50.3 65.3
5/21/19 - 2345 52.9 75 45.2 5.8 WNW | 285 9.9 0.00 0.12 50.3 65.3
5/21/19 - 2330 53.3 74 45.1 6.2 W | 276 11.0 0.00 0.12 50.3 65.3
5/21/19 - 2315 53.3 73 44.9 6.1 W | 274 11.2 0.00 0.12 50.3 65.3
5/21/19 - 2300 53.6 72 44.8 6.6 W | 276 12.5 0.00 0.12 50.3 65.3
5/21/19 - 2245 53.6 72 44.7 7.7 W | 271 15.1 0.00 0.12 50.3 65.3
5/21/19 - 2230 53.6 71 44.6 6.7 W | 265 15.3 0.00 0.12 50.3 65.3
5/21/19 - 2215 54.0 70 44.5 8.4 W | 270 14.5 0.00 0.12 50.3 65.3
5/21/19 - 2200 54.2 70 44.5 9.4 W | 275 16.0 0.00 0.12 50.3 65.3
5/21/19 - 2145 54.6 69 44.5 8.6 W | 276 16.7 0.00 0.12 50.3 65.3
5/21/19 - 2130 54.9 68 44.6 8.3 W | 275 15.1 0.00 0.12 50.3 65.3
5/21/19 - 2115 55.2 68 44.6 8.0 W | 274 13.6 0.00 0.12 50.3 65.3
5/21/19 - 2100 55.3 67 44.6 7.8 W | 266 17.5 0.00 0.12 50.3 65.3
5/21/19 - 2045 55.4 67 44.5 8.4 W | 265 16.2 0.00 0.12 50.3 65.3
5/21/19 - 2030 55.6 66 44.6 9.0 W | 263 14.9 0.00 0.12 50.3 65.3
5/21/19 - 2015 56.0 66 44.9 8.2 W | 264 14.9 0.00 0.12 50.3 65.3
5/21/19 - 2000 57.1 64 45.1 9.6 W | 267 18.4 0.00 0.12 50.3 65.3
5/21/19 - 1945 58.2 62 45.3 10.8 W | 271 20.0 0.00 0.12 50.3 65.3
5/21/19 - 1930 58.8 61 45.5 11.5 W | 270 23.7 0.00 0.12 50.3 65.3
5/21/19 - 1915 60.0 59 45.6 12.0 W | 270 22.4 0.00 0.12 50.3 65.3
5/21/19 - 1900 60.7 58 45.8 10.9 W | 277 18.2 0.00 0.12 50.3 65.3
5/21/19 - 1845 60.9 57 45.5 13.0 W | 275 28.3 0.00 0.12 50.3 65.3
5/21/19 - 1830 61.2 56 45.6 13.5 W | 272 24.1 0.00 0.12 50.3 65.3
5/21/19 - 1815 61.8 55 45.5 13.1 W | 273 23.7 0.00 0.12 50.3 65.3
5/21/19 - 1800 62.0 55 45.5 13.6 W | 270 21.5 0.00 0.12 50.3 65.3
5/21/19 - 1745 61.9 55 45.8 13.2 W | 274 25.4 0.00 0.12 50.3 65.3
5/21/19 - 1730 62.5 55 46.3 14.1 W | 276 25.4 0.00 0.12 50.3 65.3
5/21/19 - 1715 63.0 54 46.3 14.9 W | 272 25.6 0.00 0.12 50.3 65.3
5/21/19 - 1700 63.3 54 46.5 13.4 W | 266 25.9 0.00 0.12 50.3 65.3
5/21/19 - 1645 63.6 53 46.0 14.7 W | 274 28.1 0.00 0.12 50.3 65.3
5/21/19 - 1630 64.2 53 46.9 14.1 W | 270 26.7 0.01 0.12 50.3 65.3
5/21/19 - 1615 64.5 53 47.1 14.4 W | 265 25.4 0.00 0.11 50.3 65.3
5/21/19 - 1600 64.4 53 47.0 12.1 W | 271 27.0 0.00 0.11 50.3 65.2
5/21/19 - 1545 64.4 53 47.0 14.4 W | 264 24.3 0.00 0.11 50.3 65.2
5/21/19 - 1530 64.3 55 47.6 12.8 W | 268 21.9 0.00 0.11 50.3 65.2
5/21/19 - 1515 64.0 58 49.0 10.0 W | 261 20.0 0.00 0.11 50.3 64.9
5/21/19 - 1500 63.7 58 48.8 11.6 W | 263 21.9 0.00 0.11 50.3 64.9
5/21/19 - 1445 63.6 61 49.8 10.9 W | 274 22.1 0.00 0.11 50.3 64.7
5/21/19 - 1430 62.8 64 50.4 11.9 W | 265 22.1 0.00 0.11 50.3 63.4
5/21/19 - 1415 61.6 69 51.2 11.0 WNW | 284 22.1 0.00 0.11 50.3 63.4
5/21/19 - 1400 62.0 70 52.2 7.0 W | 270 19.7 0.00 0.11 50.3 63.4
5/21/19 - 1345 60.2 77 53.2 5.1 W | 281 9.9 0.00 0.11 50.3 63.4
5/21/19 - 1330 60.6 74 52.3 5.4 NW | 313 11.4 0.02 0.11 50.3 63.4
5/21/19 - 1315 59.9 75 52.0 7.1 WNW | 297 12.9 0.00 0.09 50.3 63.4
5/21/19 - 1300 58.0 79 51.7 9.2 WNW | 290 19.5 0.02 0.09 50.3 63.4
5/21/19 - 1245 59.7 72 50.6 10.1 W | 276 20.8 0.01 0.07 50.3 63.4
5/21/19 - 1230 58.6 76 51.0 8.4 W | 277 21.3 0.01 0.06 50.3 63.4
5/21/19 - 1215 62.4 71 52.9 4.0 WNW | 284 10.3 0.00 0.05 50.3 63.4
5/21/19 - 1200 59.3 79 53.0 3.7 W | 278 7.2 0.00 0.05 50.3 62.9
5/21/19 - 1145 56.7 84 51.9 4.6 W | 279 9.4 0.01 0.05 50.3 62.9
5/21/19 - 1130 56.2 81 50.4 4.8 WNW | 294 9.6 0.02 0.04 50.3 62.9
5/21/19 - 1115 57.6 79 51.3 5.5 W | 270 10.5 0.00 0.02 50.3 62.9
5/21/19 - 1100 57.4 70 47.6 8.4 W | 263 15.6 0.01 0.02 50.3 62.9
5/21/19 - 1045 58.5 64 46.5 6.0 W | 275 11.8 0.00 0.01 50.3 62.9
5/21/19 - 1030 59.9 60 45.9 7.2 W | 270 13.8 0.00 0.01 50.3 62.9
5/21/19 - 1015 61.8 58 46.9 6.8 W | 269 12.1 0.00 0.01 50.3 62.9
5/21/19 - 1000 61.4 59 46.9 7.8 WNW | 285 13.8 0.00 0.01 50.3 62.9
5/21/19 - 0945 58.8 63 46.4 6.5 WNW | 289 12.9 0.00 0.01 50.3 61.6
5/21/19 - 0930 59.1 63 46.4 5.0 WNW | 287 8.6 0.00 0.01 50.3 61.6
5/21/19 - 0915 60.5 60 46.6 6.5 W | 267 14.0 0.00 0.01 50.3 61.6
5/21/19 - 0900 60.6 61 47.0 6.4 W | 279 12.7 0.00 0.01 50.3 61.6
5/21/19 - 0845 60.0 65 48.1 5.6 W | 274 10.7 0.00 0.01 50.3 60.6
5/21/19 - 0830 59.6 67 48.8 4.7 W | 262 8.8 0.00 0.01 50.3 60.2
5/21/19 - 0815 58.7 70 48.8 5.1 W | 263 9.2 0.00 0.01 50.3 59.1
5/21/19 - 0800 57.4 73 48.7 3.1 WNW | 286 6.4 0.00 0.01 50.3 58.3
5/21/19 - 0745 57.4 73 49.0 0.9 W | 277 2.8 0.00 0.01 50.3 58.1
5/21/19 - 0730 55.3 79 49.0 1.9 NW | 306 3.5 0.00 0.01 50.3 56.7
5/21/19 - 0715 52.8 87 49.0 1.5 N | 360 2.4 0.00 0.01 50.3 53.9
5/21/19 - 0700 51.8 89 48.5 1.6 W | 274 3.7 0.00 0.01 50.3 53.7
5/21/19 - 0645 51.0 91 48.4 1.5 SE | 130 3.5 0.00 0.01 50.3 53.7
5/21/19 - 0630 51.4 90 48.6 1.5 ENE | 59 2.4 0.00 0.01 50.3 53.7
5/21/19 - 0615 51.6 91 49.1 1.5 ENE | 73 3.5 0.00 0.01 50.3 53.7
5/21/19 - 0600 51.4 91 48.8 1.2 SSE | 160 3.1 0.01 0.01 50.3 53.7
5/21/19 - 0545 51.3 91 48.7 3.1 NW | 309 7.9 0.00 0.00 50.3 53.7
5/21/19 - 0530 51.7 89 48.6 4.6 WNW | 291 8.8 0.00 0.00 50.3 53.7
5/21/19 - 0515 52.2 87 48.4 4.6 NW | 304 9.2 0.00 0.00 50.3 53.7
5/21/19 - 0500 52.3 85 48.1 5.1 NNW | 331 8.6 0.00 0.00 50.3 53.7
5/21/19 - 0445 53.0 82 47.8 4.4 NNW | 337 13.2 0.00 0.00 50.3 53.7
5/21/19 - 0430 53.3 78 46.6 2.4 ENE | 75 5.5 0.00 0.00 50.3 53.7
5/21/19 - 0415 53.4 77 46.2 2.8 E | 84 4.6 0.00 0.00 50.3 53.7
5/21/19 - 0400 53.3 76 46.2 3.0 E | 96 6.4 0.00 0.00 50.3 53.5
5/21/19 - 0345 53.3 77 46.2 3.0 E | 85 5.7 0.00 0.00 50.3 53.5
5/21/19 - 0330 53.1 77 46.1 3.2 ENE | 67 5.9 0.00 0.00 50.3 53.5
Max 64.5 91 53.2 14.9 - 28.3 0.02 0.12 54.0 65.3
Avg 57.2 70 47.3 7.2 - 13.8 0.00 - - -
Min 51.0 53 44.5 0.9 - 2.4 0.00 0.00 50.3 53.5
Total - - - - - - 0.12 - - -

Last 7 Days

Modesto Jr College

Daily Data | America/Los_Angeles
as of 5/22/19 3:39 AM PDT
Date Daily ETo (in)
5/21/19 0.13
5/20/19 0.16
5/19/19 0.09
5/18/19 0.07
5/17/19 0.15
5/16/19 0.12
5/15/19 0.10
Max 0.16
Min 0.07